createdAt,value
2022-08-23T00:01:39.045Z,21.28
2022-08-23T00:04:53.288Z,21.10
2022-08-23T00:08:03.909Z,20.78
2022-08-23T00:11:05.806Z,20.73
2022-08-23T00:14:27.897Z,21.15
2022-08-23T00:17:34.056Z,21.61
2022-08-23T00:20:36.685Z,21.37
2022-08-23T00:23:38.574Z,21.75
2022-08-23T00:26:49.726Z,21.59
2022-08-23T00:29:53.428Z,21.54
2022-08-23T00:32:56.992Z,20.71
2022-08-23T00:35:59.952Z,21.21
2022-08-23T00:39:01.776Z,20.98
2022-08-23T00:42:33.010Z,21.27
2022-08-23T00:46:12.210Z,21.38
2022-08-23T00:49:14.066Z,21.93
2022-08-23T00:52:22.222Z,21.63
2022-08-23T00:55:24.764Z,21.47
2022-08-23T00:58:27.100Z,21.13
2022-08-23T01:01:28.962Z,20.96
2022-08-23T01:04:31.986Z,20.74
2022-08-23T01:07:39.910Z,20.96
2022-08-23T01:10:42.634Z,21.54
2022-08-23T01:13:49.078Z,21.23
2022-08-23T01:16:53.465Z,21.49
2022-08-23T01:19:56.581Z,21.12
2022-08-23T01:22:58.454Z,21.38
2022-08-23T01:26:00.265Z,21.44
2022-08-23T01:29:04.002Z,21.57
2022-08-23T01:32:05.966Z,21.74
2022-08-23T01:35:08.073Z,21.66
2022-08-23T01:38:11.124Z,21.29
2022-08-23T01:41:13.007Z,21.40
2022-08-23T01:44:14.870Z,21.38
2022-08-23T01:47:17.463Z,21.18
2022-08-23T01:50:19.371Z,21.35
2022-08-23T01:53:21.232Z,21.18
2022-08-23T01:56:38.239Z,22.16
2022-08-23T01:59:41.039Z,21.54
2022-08-23T02:02:43.208Z,22.09
2022-08-23T02:05:45.721Z,21.16
2022-08-23T02:09:03.531Z,20.80
2022-08-23T02:12:05.820Z,21.40
2022-08-23T02:15:07.790Z,21.08
2022-08-23T02:18:11.044Z,21.25
2022-08-23T02:21:15.352Z,21.59
2022-08-23T02:24:19.127Z,21.32
2022-08-23T02:27:20.964Z,22.07
2022-08-23T02:30:22.777Z,22.33
2022-08-23T02:33:24.846Z,21.79
2022-08-23T02:36:27.262Z,21.44
2022-08-23T02:39:30.243Z,21.49
2022-08-23T02:42:32.068Z,21.94
2022-08-23T02:45:34.161Z,22.10
2022-08-23T02:48:36.427Z,22.04
2022-08-23T02:51:39.700Z,21.47
2022-08-23T02:54:41.585Z,21.34
2022-08-23T02:57:43.426Z,21.65
2022-08-23T03:00:48.637Z,21.27
2022-08-23T03:03:50.650Z,21.34
2022-08-23T03:06:52.856Z,22.01
2022-08-23T03:09:54.662Z,21.88
2022-08-23T03:12:56.576Z,21.75
2022-08-23T03:15:58.372Z,21.26
2022-08-23T03:19:02.236Z,21.86
2022-08-23T03:22:04.052Z,21.77
2022-08-23T03:25:06.458Z,21.88
2022-08-23T03:28:08.314Z,21.80
2022-08-23T03:31:10.144Z,21.87
2022-08-23T03:34:12.229Z,21.83
2022-08-23T03:37:14.440Z,21.40
2022-08-23T03:40:16.699Z,21.52
2022-08-23T03:43:19.166Z,21.97
2022-08-23T03:46:23.979Z,21.41
2022-08-23T03:49:25.884Z,21.68
2022-08-23T03:52:27.713Z,21.85
2022-08-23T03:55:29.616Z,22.84
2022-08-23T03:58:31.450Z,22.77
2022-08-23T04:01:33.282Z,21.89
2022-08-23T04:04:35.419Z,21.77
2022-08-23T04:07:38.398Z,21.98
2022-08-23T04:10:40.456Z,21.47
2022-08-23T04:13:43.021Z,22.73
2022-08-23T04:16:44.901Z,22.74
2022-08-23T04:19:46.811Z,22.33
2022-08-23T04:22:51.502Z,22.25
2022-08-23T04:25:54.138Z,22.91
2022-08-23T04:28:56.161Z,22.98
2022-08-23T04:31:58.020Z,23.03
2022-08-23T04:34:59.876Z,22.54
2022-08-23T04:38:01.991Z,23.02
2022-08-23T04:41:22.767Z,23.03
2022-08-23T04:44:24.830Z,22.85
2022-08-23T04:47:26.673Z,22.96
2022-08-23T04:50:28.847Z,22.65
2022-08-23T04:53:32.928Z,22.33
2022-08-23T04:56:34.898Z,22.28
2022-08-23T04:59:36.730Z,23.06
2022-08-23T05:02:38.670Z,22.99
2022-08-23T05:05:41.978Z,22.97
2022-08-23T05:08:43.850Z,23.26
2022-08-23T05:11:45.790Z,23.40
2022-08-23T05:14:48.079Z,23.46
2022-08-23T05:17:49.995Z,23.35
2022-08-23T05:20:51.910Z,23.14
2022-08-23T05:23:54.663Z,23.02
2022-08-23T05:26:56.930Z,23.13
2022-08-23T05:29:58.774Z,23.62
2022-08-23T05:33:00.992Z,23.99
2022-08-23T05:36:04.475Z,23.65
2022-08-23T05:39:06.816Z,23.74
2022-08-23T05:42:09.355Z,23.84
2022-08-23T05:45:11.224Z,24.00
2022-08-23T05:48:15.567Z,23.32
2022-08-23T05:51:24.480Z,23.80
2022-08-23T05:54:26.416Z,23.97
2022-08-23T05:57:28.280Z,23.27
2022-08-23T06:00:40.641Z,23.86
2022-08-23T06:03:43.230Z,23.78
2022-08-23T06:06:45.152Z,23.23
2022-08-23T06:09:47.018Z,23.61
2022-08-23T06:12:49.093Z,23.92
2022-08-23T06:15:51.247Z,23.28
2022-08-23T06:18:53.615Z,23.89
2022-08-23T06:21:55.621Z,23.78
2022-08-23T06:24:57.520Z,23.58
2022-08-23T06:27:59.661Z,23.64
2022-08-23T06:31:01.694Z,23.43
2022-08-23T06:34:03.681Z,23.74
2022-08-23T06:37:06.873Z,23.75
2022-08-23T06:40:09.374Z,23.57
2022-08-23T06:43:11.420Z,23.15
2022-08-23T06:46:20.672Z,23.44
2022-08-23T06:49:25.524Z,23.66
2022-08-23T06:52:28.392Z,23.97
2022-08-23T06:55:31.361Z,24.06
2022-08-23T06:58:33.474Z,24.41
2022-08-23T07:01:46.756Z,23.81
2022-08-23T07:04:54.109Z,23.85
2022-08-23T07:07:56.559Z,24.24
2022-08-23T07:10:58.757Z,24.80
2022-08-23T07:14:01.121Z,24.45
2022-08-23T07:17:03.660Z,25.35
2022-08-23T07:20:05.938Z,24.42
2022-08-23T07:23:07.848Z,24.30
2022-08-23T07:26:10.771Z,23.99
2022-08-23T07:29:12.902Z,24.28
2022-08-23T07:32:18.730Z,25.07
2022-08-23T07:35:22.512Z,25.07
2022-08-23T07:38:24.378Z,24.72
2022-08-23T07:41:33.122Z,24.55
2022-08-23T07:44:35.225Z,24.84
2022-08-23T07:47:38.431Z,24.88
2022-08-23T07:50:40.866Z,25.46
2022-08-23T07:53:56.589Z,25.37
2022-08-23T07:56:58.549Z,26.18
2022-08-23T08:00:00.426Z,27.27
2022-08-23T08:03:02.367Z,28.31
2022-08-23T08:06:08.590Z,29.16
2022-08-23T08:09:10.742Z,28.13
2022-08-23T08:12:12.814Z,30.06
2022-08-23T08:15:14.995Z,30.65
2022-08-23T08:18:17.117Z,28.61
2022-08-23T08:21:19.227Z,28.95
2022-08-23T08:24:21.301Z,30.79
2022-08-23T08:27:23.258Z,28.99
2022-08-23T08:30:26.231Z,27.14
2022-08-23T08:33:30.787Z,27.47
2022-08-23T08:36:35.526Z,27.68
2022-08-23T08:39:42.952Z,29.76
2022-08-23T08:43:07.533Z,28.59
2022-08-23T08:46:12.873Z,27.55
2022-08-23T08:49:17.873Z,27.19
2022-08-23T08:52:22.803Z,27.05
2022-08-23T08:55:26.091Z,26.61
2022-08-23T08:58:41.777Z,27.68
2022-08-23T09:01:43.817Z,26.38
2022-08-23T09:04:46.393Z,27.86
2022-08-23T09:08:06.966Z,26.61
2022-08-23T09:11:11.514Z,26.27
2022-08-23T09:14:19.626Z,27.98
2022-08-23T09:17:40.221Z,27.84
2022-08-23T09:20:43.324Z,27.95
2022-08-23T09:23:46.080Z,27.86
2022-08-23T09:26:48.248Z,28.02
2022-08-23T09:29:56.268Z,28.11
2022-08-23T09:32:58.189Z,28.14
2022-08-23T09:36:03.298Z,30.17
2022-08-23T09:39:08.991Z,28.92
2022-08-23T09:42:29.788Z,29.38
2022-08-23T09:45:35.944Z,29.60
2022-08-23T09:48:42.240Z,30.52
2022-08-23T09:51:47.911Z,32.52
2022-08-23T09:54:59.608Z,30.79
2022-08-23T09:58:02.661Z,33.91
2022-08-23T10:01:09.410Z,33.50
2022-08-23T10:04:16.143Z,31.75
2022-08-23T10:07:24.737Z,29.78
2022-08-23T10:10:29.684Z,31.68
2022-08-23T10:13:31.512Z,30.22
2022-08-23T10:16:40.171Z,31.06
2022-08-23T10:19:51.341Z,29.44
2022-08-23T10:22:56.302Z,30.10
2022-08-23T10:25:58.598Z,29.01
2022-08-23T10:29:38.562Z,30.08
2022-08-23T10:32:41.147Z,31.36
2022-08-23T10:35:52.002Z,31.80
2022-08-23T10:38:57.728Z,31.93
2022-08-23T10:42:06.749Z,31.78
2022-08-23T10:45:12.681Z,33.59
2022-08-23T10:48:29.503Z,32.21
2022-08-23T10:51:33.450Z,30.95
2022-08-23T10:54:46.262Z,33.96
2022-08-23T10:57:48.304Z,31.25
2022-08-23T11:00:50.435Z,31.04
2022-08-23T11:03:57.202Z,32.42
2022-08-23T11:07:00.100Z,31.60
2022-08-23T11:10:16.407Z,31.59
2022-08-23T11:13:23.325Z,30.50
2022-08-23T11:16:26.647Z,29.42
2022-08-23T11:19:54.770Z,29.59
2022-08-23T11:22:56.674Z,29.07
2022-08-23T11:25:58.554Z,28.02
2022-08-23T11:29:06.958Z,28.37
2022-08-23T11:32:13.179Z,30.72
2022-08-23T11:35:47.821Z,33.54
2022-08-23T11:38:50.234Z,34.00
2022-08-23T11:41:55.325Z,32.04
2022-08-23T11:44:57.375Z,31.25
2022-08-23T11:48:05.411Z,32.42
2022-08-23T11:51:32.131Z,32.88
2022-08-23T11:54:37.078Z,32.12
2022-08-23T11:57:57.577Z,30.60
2022-08-23T12:01:06.842Z,32.42
2022-08-23T12:04:29.253Z,31.78
2022-08-23T12:07:47.999Z,31.01
2022-08-23T12:10:51.175Z,29.71
2022-08-23T12:13:56.130Z,32.24
2022-08-23T12:17:13.625Z,34.13
2022-08-23T12:20:22.129Z,33.84
2022-08-23T12:23:27.044Z,33.70
2022-08-23T12:26:33.574Z,35.81
2022-08-23T12:29:41.370Z,36.04
2022-08-23T12:32:58.727Z,34.56
2022-08-23T12:36:15.473Z,36.48
2022-08-23T12:39:24.166Z,34.13
2022-08-23T12:42:30.972Z,34.54
2022-08-23T12:45:37.439Z,34.50
2022-08-23T12:48:46.386Z,33.21
2022-08-23T12:51:48.952Z,31.38
2022-08-23T12:54:51.004Z,31.38
2022-08-23T12:57:55.235Z,30.99
2022-08-23T13:00:58.375Z,29.92
2022-08-23T13:04:03.222Z,30.93
2022-08-23T13:07:06.393Z,30.19
2022-08-23T13:10:09.522Z,29.58
2022-08-23T13:13:12.567Z,29.02
2022-08-23T13:16:27.618Z,29.42
2022-08-23T13:19:31.107Z,29.53
2022-08-23T13:22:33.596Z,29.17
2022-08-23T13:25:37.004Z,30.05
2022-08-23T13:28:38.850Z,28.37
2022-08-23T13:32:02.619Z,28.43
2022-08-23T13:35:34.070Z,28.33
2022-08-23T13:38:36.201Z,28.55
2022-08-23T13:41:39.172Z,28.19
2022-08-23T13:44:43.142Z,29.55
2022-08-23T13:47:49.167Z,27.72
2022-08-23T13:50:51.448Z,28.65
2022-08-23T13:53:54.655Z,28.66
2022-08-23T13:56:59.361Z,28.93
2022-08-23T14:00:02.384Z,28.01
2022-08-23T14:03:05.172Z,27.64
2022-08-23T14:06:07.183Z,28.23
2022-08-23T14:09:09.216Z,27.66
2022-08-23T14:12:19.008Z,27.31
2022-08-23T14:15:53.998Z,27.50
2022-08-23T14:22:05.185Z,27.37
2022-08-23T14:25:07.471Z,26.56
2022-08-23T14:28:09.518Z,27.50
2022-08-23T14:31:11.576Z,27.35
2022-08-23T14:34:13.615Z,27.61
2022-08-23T14:40:37.683Z,27.69
2022-08-23T14:43:39.624Z,27.55
2022-08-23T14:46:41.465Z,27.22
2022-08-23T14:49:43.369Z,27.63
2022-08-23T14:52:46.069Z,27.09
2022-08-23T14:56:01.158Z,27.49
2022-08-23T14:59:12.170Z,27.26
2022-08-23T15:02:14.211Z,26.92
2022-08-23T15:05:16.467Z,27.96
2022-08-23T15:08:18.595Z,27.75
2022-08-23T15:14:42.724Z,27.02
2022-08-23T15:17:51.916Z,27.61
2022-08-23T15:20:53.863Z,27.43
2022-08-23T15:23:55.759Z,27.24
2022-08-23T15:26:59.839Z,27.37
2022-08-23T15:30:01.798Z,26.43
2022-08-23T15:33:04.259Z,26.42
2022-08-23T15:36:08.373Z,25.86
2022-08-23T15:39:10.405Z,26.32
2022-08-23T15:42:16.534Z,27.11
2022-08-23T15:45:22.057Z,27.03
2022-08-23T15:48:28.370Z,27.45
2022-08-23T15:51:30.659Z,26.86
2022-08-23T15:54:32.522Z,26.89
2022-08-23T15:57:38.588Z,26.35
2022-08-23T16:00:40.519Z,26.71
2022-08-23T16:03:43.320Z,26.60
2022-08-23T16:06:45.245Z,26.00
2022-08-23T16:09:47.359Z,26.22
2022-08-23T16:12:49.370Z,26.67
2022-08-23T16:15:51.305Z,26.23
2022-08-23T16:18:54.150Z,26.48
2022-08-23T16:21:56.001Z,26.04
2022-08-23T16:24:57.877Z,26.29
2022-08-23T16:27:59.761Z,26.45
2022-08-23T16:31:01.694Z,26.66
2022-08-23T16:34:03.920Z,26.24
2022-08-23T16:37:06.423Z,25.66
2022-08-23T16:40:08.575Z,26.28
2022-08-23T16:43:10.827Z,26.26
2022-08-23T16:46:12.730Z,25.71
2022-08-23T16:49:15.340Z,26.05
2022-08-23T16:52:17.491Z,26.02
2022-08-23T16:55:22.550Z,25.58
2022-08-23T16:58:24.496Z,25.52
2022-08-23T17:01:26.839Z,25.95
2022-08-23T17:04:30.596Z,26.20
2022-08-23T17:07:32.797Z,25.30
2022-08-23T17:10:34.960Z,25.43
2022-08-23T17:13:37.154Z,25.04
2022-08-23T17:16:40.560Z,24.77
2022-08-23T17:19:43.700Z,24.96
2022-08-23T17:22:45.808Z,25.51
2022-08-23T17:25:49.460Z,25.33
2022-08-23T17:28:51.466Z,24.60
2022-08-23T17:31:53.443Z,24.69
2022-08-23T17:34:55.449Z,24.58
2022-08-23T17:37:57.594Z,24.30
2022-08-23T17:41:01.255Z,24.57
2022-08-23T17:44:04.316Z,24.08
2022-08-23T17:47:07.840Z,24.72
2022-08-23T17:50:10.350Z,24.29
2022-08-23T17:53:12.383Z,24.45
2022-08-23T17:56:14.256Z,24.96
2022-08-23T17:59:16.165Z,24.71
2022-08-23T18:02:18.409Z,24.17
2022-08-23T18:05:20.383Z,24.32
2022-08-23T18:08:22.266Z,24.82
2022-08-23T18:11:25.302Z,23.87
2022-08-23T18:14:27.949Z,23.91
2022-08-23T18:17:30.322Z,24.25
2022-08-23T18:20:32.833Z,24.64
2022-08-23T18:23:35.090Z,24.88
2022-08-23T18:26:56.236Z,25.05
2022-08-23T18:29:58.681Z,24.37
2022-08-23T18:33:00.633Z,24.19
2022-08-23T18:36:02.763Z,24.96
2022-08-23T18:39:05.108Z,23.92
2022-08-23T18:42:09.204Z,23.87
2022-08-23T18:45:11.399Z,24.66
2022-08-23T18:48:13.344Z,24.62
2022-08-23T18:51:18.090Z,24.78
2022-08-23T18:54:20.186Z,24.19
2022-08-23T18:57:22.051Z,24.05
2022-08-23T19:00:24.032Z,24.21
2022-08-23T19:03:26.071Z,23.63
2022-08-23T19:06:28.179Z,23.66
2022-08-23T19:09:30.198Z,24.17
2022-08-23T19:12:32.059Z,24.21
2022-08-23T19:15:34.123Z,24.14
2022-08-23T19:18:36.020Z,23.36
2022-08-23T19:21:37.966Z,23.57
2022-08-23T19:24:40.145Z,23.85
2022-08-23T19:27:42.032Z,23.30
2022-08-23T19:30:44.067Z,23.47
2022-08-23T19:33:45.984Z,24.09
2022-08-23T19:36:55.787Z,24.04
2022-08-23T19:40:01.094Z,23.48
2022-08-23T19:43:03.420Z,23.57
2022-08-23T19:46:07.498Z,23.15
2022-08-23T19:49:10.074Z,23.04
2022-08-23T19:52:12.094Z,23.69
2022-08-23T19:55:14.108Z,23.03
2022-08-23T19:58:17.906Z,23.17
2022-08-23T20:01:19.918Z,23.67
2022-08-23T20:04:22.016Z,23.08
2022-08-23T20:07:23.856Z,23.98
2022-08-23T20:10:25.872Z,22.82
2022-08-23T20:13:28.393Z,23.02
2022-08-23T20:16:32.496Z,22.95
2022-08-23T20:19:35.233Z,22.80
2022-08-23T20:22:55.611Z,22.51
2022-08-23T20:25:57.468Z,22.41
2022-08-23T20:29:00.353Z,22.42
2022-08-23T20:32:06.263Z,22.67
2022-08-23T20:35:08.864Z,23.53
2022-08-23T20:38:32.782Z,23.52
2022-08-23T20:41:34.182Z,22.83
2022-08-23T20:44:36.046Z,22.78
2022-08-23T20:47:40.286Z,22.62
2022-08-23T20:50:42.148Z,22.63
2022-08-23T20:53:43.995Z,22.52
2022-08-23T20:56:45.843Z,23.04
2022-08-23T20:59:47.710Z,23.00
2022-08-23T21:02:49.581Z,23.56
2022-08-23T21:05:51.469Z,23.45
2022-08-23T21:08:54.086Z,23.18
2022-08-23T21:11:56.002Z,23.12
2022-08-23T21:14:57.865Z,23.41
2022-08-23T21:17:59.733Z,23.06
2022-08-23T21:21:01.608Z,23.04
2022-08-23T21:24:04.030Z,22.53
2022-08-23T21:27:09.321Z,23.39
2022-08-23T21:30:12.441Z,22.94
2022-08-23T21:33:14.676Z,22.86
2022-08-23T21:36:16.785Z,22.78
2022-08-23T21:39:18.664Z,23.10
2022-08-23T21:42:23.600Z,23.59
2022-08-23T21:45:25.769Z,22.87
2022-08-23T21:48:27.610Z,23.47
2022-08-23T21:51:29.785Z,23.10
2022-08-23T21:54:31.662Z,23.73
2022-08-23T21:57:34.022Z,23.85
2022-08-23T22:00:39.112Z,23.36
2022-08-23T22:03:41.055Z,23.78
2022-08-23T22:06:44.330Z,23.99
2022-08-23T22:09:47.109Z,23.76
2022-08-23T22:12:49.394Z,23.76
2022-08-23T22:15:51.314Z,23.35
2022-08-23T22:18:53.844Z,22.71
2022-08-23T22:21:56.583Z,23.04
2022-08-23T22:24:58.419Z,23.49
2022-08-23T22:28:00.260Z,22.32
2022-08-23T22:31:02.950Z,23.38
2022-08-23T22:34:05.354Z,23.59
2022-08-23T22:37:07.249Z,23.21
2022-08-23T22:40:10.357Z,23.01
2022-08-23T22:43:12.326Z,23.53
2022-08-23T22:46:14.260Z,23.19
2022-08-23T22:49:16.372Z,23.19
2022-08-23T22:52:18.472Z,22.50
2022-08-23T22:55:20.337Z,22.91
2022-08-23T22:58:22.176Z,23.23
2022-08-23T23:01:27.192Z,22.28
2022-08-23T23:04:31.124Z,22.17
2022-08-23T23:07:51.637Z,22.04
2022-08-23T23:10:57.543Z,22.08
2022-08-23T23:13:59.420Z,21.78
2022-08-23T23:17:01.285Z,21.86
2022-08-23T23:20:22.534Z,21.92
2022-08-23T23:23:24.699Z,22.26
2022-08-23T23:26:26.547Z,22.35
2022-08-23T23:29:28.667Z,22.67
2022-08-23T23:32:30.521Z,22.59
2022-08-23T23:35:32.765Z,22.27
2022-08-23T23:38:34.638Z,22.58
2022-08-23T23:41:36.451Z,21.98
2022-08-23T23:44:38.297Z,21.58
2022-08-23T23:47:40.300Z,21.51
2022-08-23T23:50:44.886Z,21.54
2022-08-23T23:53:47.529Z,21.58
2022-08-23T23:56:49.484Z,21.98
2022-08-23T23:59:52.982Z,21.84
